Time;durP1;ratioP1;P1;durP2;ratioP2;P2;SDS_P1;SDS_P2;PMS_P1;PMS_P2;Temp;Humidity;BMP_temperature;BMP_pressure;BME280_temperature;BME280_humidity;BME280_pressure;Samples;Min_cycle;Max_cycle;Signal;HPM_P1;HPM_P2
2023/12/28 00:01:13;;;;;;;0.50;0.10;;;7.90;99.90;;;;;;5076686;28;20528;-73
2023/12/28 00:03:41;;;;;;;0.70;0.57;;;7.80;99.90;;;;;;5060023;28;20485;-73
2023/12/28 00:06:09;;;;;;;0.50;0.10;;;7.80;99.90;;;;;;5075224;28;20898;-73
2023/12/28 00:08:39;;;;;;;0.50;0.10;;;7.80;99.90;;;;;;5075288;28;20477;-73
2023/12/28 00:11:07;;;;;;;0.50;0.10;;;7.80;99.90;;;;;;5067359;28;20549;-73
2023/12/28 00:13:35;;;;;;;1.63;0.70;;;7.80;99.90;;;;;;5064543;28;20450;-74
2023/12/28 00:16:03;;;;;;;0.50;0.10;;;7.70;99.90;;;;;;5069645;28;20470;-73
2023/12/28 00:18:30;;;;;;;2.10;1.40;;;7.80;99.90;;;;;;5074951;28;20445;-73
2023/12/28 00:20:58;;;;;;;0.50;0.10;;;7.80;99.90;;;;;;5076051;28;20442;-73
2023/12/28 00:23:26;;;;;;;0.50;0.20;;;7.70;99.90;;;;;;5059733;28;20475;-73
2023/12/28 00:25:56;;;;;;;2.60;0.53;;;;;;;;;;5064150;28;20554;-74
2023/12/28 00:28:24;;;;;;;0.50;0.10;;;7.70;99.90;;;;;;5072245;28;20468;-74
2023/12/28 00:30:51;;;;;;;0.77;0.67;;;7.70;99.90;;;;;;5074610;28;20528;-74
2023/12/28 00:33:19;;;;;;;0.50;0.10;;;7.70;99.90;;;;;;5074636;28;20541;-72
2023/12/28 00:35:47;;;;;;;0.50;0.10;;;7.60;99.90;;;;;;5073687;28;20487;-72
2023/12/28 00:38:15;;;;;;;0.50;0.20;;;7.60;99.90;;;;;;5061918;28;20524;-71
2023/12/28 00:40:43;;;;;;;4.60;1.50;;;7.60;99.90;;;;;;5070940;28;20434;-72
2023/12/28 00:43:12;;;;;;;0.50;0.10;;;7.60;99.90;;;;;;5054236;28;20534;-71
2023/12/28 00:45:41;;;;;;;1.03;1.03;;;7.60;99.90;;;;;;5070828;28;20504;-74
2023/12/28 00:48:09;;;;;;;0.50;0.10;;;7.60;99.90;;;;;;5060054;28;20439;-73
2023/12/28 00:50:38;;;;;;;0.50;0.20;;;7.70;99.90;;;;;;5066629;28;20934;-72
2023/12/28 00:53:05;;;;;;;0.50;0.10;;;7.70;99.90;;;;;;5065703;28;20458;-73
2023/12/28 00:55:33;;;;;;;3.90;0.70;;;7.70;99.90;;;;;;5073220;28;20815;-73
2023/12/28 00:58:01;;;;;;;0.50;0.20;;;7.70;99.90;;;;;;5074038;28;20480;-72
2023/12/28 01:00:31;;;;;;;0.50;0.10;;;7.70;99.90;;;;;;5074921;28;20522;-73
2023/12/28 01:02:58;;;;;;;0.60;0.20;;;7.70;99.90;;;;;;5057814;28;20543;-73
2023/12/28 01:05:28;;;;;;;0.50;0.10;;;7.70;99.90;;;;;;5072087;28;20478;-73
2023/12/28 01:07:56;;;;;;;0.50;0.10;;;7.70;99.90;;;;;;5070725;28;20544;-73
2023/12/28 01:10:24;;;;;;;0.60;0.27;;;7.70;99.90;;;;;;5066727;28;20478;-73
2023/12/28 01:12:52;;;;;;;0.50;0.10;;;7.80;99.90;;;;;;5067481;28;20442;-73
2023/12/28 01:15:20;;;;;;;0.60;0.30;;;7.80;99.90;;;;;;5063321;28;20448;-73
2023/12/28 01:17:50;;;;;;;0.50;0.10;;;7.80;99.90;;;;;;5074501;28;20479;-71
2023/12/28 01:20:18;;;;;;;0.50;0.10;;;7.80;99.90;;;;;;5073713;28;20447;-73
2023/12/28 01:22:46;;;;;;;4.33;4.03;;;7.80;99.90;;;;;;5062195;28;20442;-72
2023/12/28 01:25:14;;;;;;;0.57;0.30;;;7.90;99.90;;;;;;5056396;28;20511;-72
2023/12/28 01:27:42;;;;;;;0.73;0.50;;;7.90;99.90;;;;;;5064429;28;20500;-72
2023/12/28 01:30:10;;;;;;;1.80;1.70;;;;;;;;;;5071105;28;20445;-72
2023/12/28 01:32:38;;;;;;;1.43;1.03;;;7.90;99.90;;;;;;5068323;28;20451;-73
2023/12/28 01:35:08;;;;;;;1.50;0.97;;;7.90;99.90;;;;;;5073319;28;20437;-72
2023/12/28 01:37:36;;;;;;;0.60;0.53;;;8.00;99.90;;;;;;5073622;28;20941;-73
2023/12/28 01:40:05;;;;;;;0.50;0.10;;;8.10;99.90;;;;;;5073247;28;20442;-73
2023/12/28 01:42:35;;;;;;;2.53;2.43;;;8.10;99.90;;;;;;5064456;28;20528;-74
2023/12/28 01:45:03;;;;;;;0.70;0.50;;;8.20;99.90;;;;;;5072551;28;20561;-73
2023/12/28 01:47:31;;;;;;;0.50;0.10;;;8.20;99.90;;;;;;5072724;28;21099;-73
2023/12/28 01:50:01;;;;;;;0.50;0.10;;;8.30;99.90;;;;;;5072571;28;20992;-73
2023/12/28 01:52:31;;;;;;;1.00;0.40;;;;;;;;;;5067373;28;20935;-73
2023/12/28 01:54:59;;;;;;;0.70;0.50;;;8.40;99.90;;;;;;5067881;28;20542;-73
2023/12/28 01:57:27;;;;;;;0.60;0.30;;;8.40;99.90;;;;;;5068615;28;20470;-73
2023/12/28 01:59:55;;;;;;;0.50;0.10;;;8.50;99.90;;;;;;5053129;28;20467;-72
2023/12/28 02:02:24;;;;;;;0.50;0.10;;;8.40;99.90;;;;;;5057570;28;20481;-73
2023/12/28 02:04:52;;;;;;;1.33;0.60;;;8.50;99.90;;;;;;5055270;28;20504;-74
2023/12/28 02:07:22;;;;;;;0.70;0.43;;;8.50;99.90;;;;;;5053066;28;20513;-73
2023/12/28 02:09:51;;;;;;;0.50;0.10;;;8.60;99.90;;;;;;5060464;28;20440;-73
2023/12/28 02:12:19;;;;;;;0.60;0.30;;;8.60;99.90;;;;;;5055490;28;20472;-72
2023/12/28 02:14:47;;;;;;;1.10;0.83;;;8.70;99.90;;;;;;5050802;28;20547;-73
2023/12/28 02:17:21;;;;;;;0.90;0.60;;;8.70;99.90;;;;;;5052744;28;20472;-72
2023/12/28 02:19:52;;;;;;;1.07;0.87;;;8.70;99.90;;;;;;5058292;28;20460;-72
2023/12/28 02:22:20;;;;;;;0.50;0.10;;;8.70;99.90;;;;;;5052598;28;20572;-73
2023/12/28 02:25:08;;;;;;;1.50;0.67;;;8.70;99.90;;;;;;5044673;28;20528;-73
2023/12/28 02:27:39;;;;;;;0.50;0.20;;;8.70;99.90;;;;;;5052492;28;20475;-74
2023/12/28 02:30:08;;;;;;;0.60;0.40;;;8.70;99.90;;;;;;5062574;28;20447;-73
2023/12/28 02:32:53;;;;;;;0.50;0.10;;;9.60;99.90;;;;;;5049702;28;20454;-73
2023/12/28 02:35:29;;;;;;;0.50;0.10;;;8.90;99.90;;;;;;5053095;28;20477;-74
2023/12/28 02:38:10;;;;;;;0.60;0.20;;;8.90;99.90;;;;;;5052917;28;20461;-73
2023/12/28 02:40:41;;;;;;;1.77;1.53;;;8.90;99.90;;;;;;5053439;28;20515;-73
2023/12/28 02:43:09;;;;;;;1.03;0.63;;;8.90;99.90;;;;;;5056418;28;20462;-74
2023/12/28 02:45:38;;;;;;;0.57;0.33;;;8.90;99.90;;;;;;5056072;28;20551;-74
2023/12/28 02:48:07;;;;;;;0.50;0.20;;;8.90;99.90;;;;;;5050829;28;20475;-72
2023/12/28 02:50:36;;;;;;;0.50;0.10;;;;;;;;;;5050526;28;20942;-74
2023/12/28 02:53:04;;;;;;;0.50;0.10;;;9.00;99.90;;;;;;5052304;28;20496;-73
2023/12/28 02:55:32;;;;;;;1.70;1.23;;;9.00;99.90;;;;;;5051622;28;20450;-72
2023/12/28 02:58:01;;;;;;;0.50;0.23;;;9.00;99.90;;;;;;5054456;28;21044;-73
2023/12/28 03:00:31;;;;;;;0.60;0.23;;;9.00;99.90;;;;;;5052123;28;20442;-74
2023/12/28 03:02:59;;;;;;;0.50;0.10;;;9.00;99.90;;;;;;5052744;28;20527;-73
2023/12/28 03:05:27;;;;;;;0.53;0.27;;;9.00;99.90;;;;;;5050417;28;20535;-74
2023/12/28 03:07:55;;;;;;;3.30;2.83;;;9.00;99.90;;;;;;5046894;28;20467;-75
2023/12/28 03:10:23;;;;;;;1.23;1.17;;;9.00;99.90;;;;;;5053675;28;20538;-72
2023/12/28 03:12:51;;;;;;;0.63;0.40;;;9.10;99.90;;;;;;5048385;28;20443;-74
2023/12/28 03:15:20;;;;;;;0.70;0.47;;;9.10;99.90;;;;;;5056928;28;20940;-73
2023/12/28 03:17:48;;;;;;;0.50;0.20;;;9.10;99.90;;;;;;5059148;28;20513;-73
2023/12/28 03:20:16;;;;;;;0.50;0.10;;;9.10;99.90;;;;;;5056122;28;20956;-74
2023/12/28 03:22:44;;;;;;;0.60;0.30;;;9.00;99.90;;;;;;5046282;28;20527;-73
2023/12/28 03:25:12;;;;;;;0.50;0.20;;;9.10;99.90;;;;;;5055275;28;20518;-73
2023/12/28 03:27:40;;;;;;;0.67;0.60;;;9.10;99.90;;;;;;5056764;28;20908;-72
2023/12/28 03:30:09;;;;;;;0.70;0.40;;;9.10;99.90;;;;;;5056322;28;20480;-73
2023/12/28 03:32:39;;;;;;;0.50;0.20;;;9.10;99.90;;;;;;5056405;28;20485;-73
2023/12/28 03:35:07;;;;;;;0.57;0.33;;;9.10;99.90;;;;;;5055013;28;20450;-73
2023/12/28 03:37:36;;;;;;;1.90;0.97;;;9.10;99.90;;;;;;5048761;28;20469;-74
2023/12/28 03:40:04;;;;;;;0.50;0.10;;;9.10;99.90;;;;;;5057444;28;20521;-73
2023/12/28 03:42:32;;;;;;;1.67;0.73;;;9.10;99.90;;;;;;5055164;28;20990;-73
2023/12/28 03:45:00;;;;;;;0.50;0.10;;;;;;;;;;5055299;28;20465;-74
2023/12/28 03:47:28;;;;;;;0.50;0.10;;;9.10;99.90;;;;;;5056349;28;20492;-73
2023/12/28 03:49:57;;;;;;;0.50;0.10;;;9.10;99.90;;;;;;5054767;28;20962;-73
2023/12/28 03:52:29;;;;;;;3.03;1.53;;;9.10;99.90;;;;;;5053310;28;20538;-73
2023/12/28 03:54:57;;;;;;;0.50;0.30;;;9.10;99.90;;;;;;5047362;28;20438;-73
2023/12/28 03:57:26;;;;;;;0.60;0.30;;;9.10;99.90;;;;;;5055146;28;20476;-73
2023/12/28 03:59:54;;;;;;;2.57;2.40;;;9.10;99.90;;;;;;5055099;28;20538;-73
2023/12/28 04:02:24;;;;;;;1.00;0.30;;;9.10;99.90;;;;;;5055084;28;20450;-72
2023/12/28 04:04:52;;;;;;;0.50;0.10;;;9.10;99.90;;;;;;5055285;28;20441;-73
2023/12/28 04:07:21;;;;;;;1.77;1.27;;;9.10;99.90;;;;;;5055507;28;20510;-73
2023/12/28 04:09:49;;;;;;;0.50;0.10;;;9.10;99.90;;;;;;5051236;28;20457;-73
2023/12/28 04:12:17;;;;;;;1.23;0.73;;;9.10;99.90;;;;;;5055170;28;20503;-73
2023/12/28 04:14:45;;;;;;;0.50;0.30;;;9.10;99.90;;;;;;5054435;28;20474;-72
2023/12/28 04:17:13;;;;;;;0.70;0.47;;;9.20;99.90;;;;;;5054930;28;21023;-73
2023/12/28 04:19:41;;;;;;;0.50;0.20;;;9.20;99.90;;;;;;5057198;28;20443;-72
2023/12/28 04:22:08;;;;;;;0.50;0.10;;;9.20;99.90;;;;;;5059674;28;20533;-72
2023/12/28 04:24:39;;;;;;;0.50;0.20;;;9.20;99.90;;;;;;5056727;28;20496;-72
2023/12/28 04:27:07;;;;;;;0.50;0.20;;;9.20;99.90;;;;;;5056613;28;20493;-72
2023/12/28 04:29:36;;;;;;;0.77;0.77;;;9.20;99.90;;;;;;5056406;28;20453;-72
2023/12/28 04:32:04;;;;;;;1.37;0.60;;;9.20;99.90;;;;;;5056690;28;20446;-73
2023/12/28 04:34:32;;;;;;;0.50;0.30;;;9.20;99.90;;;;;;5055868;28;20452;-71
2023/12/28 04:37:00;;;;;;;0.60;0.40;;;9.20;99.90;;;;;;5055202;28;20520;-73
2023/12/28 04:39:28;;;;;;;0.50;0.20;;;9.20;99.90;;;;;;5054436;28;20448;-72
2023/12/28 04:41:57;;;;;;;0.50;0.13;;;;;;;;;;5055811;28;20483;-72
2023/12/28 04:44:26;;;;;;;0.50;0.10;;;9.20;99.90;;;;;;5054691;28;20459;-72
2023/12/28 04:46:57;;;;;;;0.50;0.20;;;9.20;99.90;;;;;;5055632;28;20946;-71
2023/12/28 04:49:24;;;;;;;0.50;0.10;;;9.20;99.90;;;;;;5060691;28;20446;-73
2023/12/28 04:51:52;;;;;;;0.50;0.20;;;9.20;99.90;;;;;;5059708;28;20816;-72
2023/12/28 04:54:20;;;;;;;0.50;0.10;;;9.30;99.90;;;;;;5060326;28;20444;-73
2023/12/28 04:56:48;;;;;;;0.50;0.10;;;9.30;99.90;;;;;;5049883;28;20483;-73
2023/12/28 04:59:17;;;;;;;2.47;2.33;;;9.30;99.90;;;;;;5058233;28;20439;-73
2023/12/28 05:01:46;;;;;;;0.50;0.20;;;;;;;;;;5052214;28;20554;-73
2023/12/28 05:04:14;;;;;;;0.50;0.10;;;9.30;99.90;;;;;;5054909;28;20474;-73
2023/12/28 05:06:45;;;;;;;9.00;2.97;;;9.30;99.90;;;;;;5052045;28;20494;-73
2023/12/28 05:09:13;;;;;;;4.40;1.07;;;9.30;99.90;;;;;;5053773;28;20985;-73
2023/12/28 05:11:41;;;;;;;0.50;0.23;;;9.30;99.90;;;;;;5054537;28;20525;-72
2023/12/28 05:14:09;;;;;;;1.30;0.70;;;9.40;99.90;;;;;;5052368;28;20441;-73
2023/12/28 05:16:39;;;;;;;0.50;0.10;;;9.30;99.90;;;;;;5052157;28;20527;-73
2023/12/28 05:19:08;;;;;;;3.60;1.03;;;9.30;99.90;;;;;;5052283;28;20477;-73
2023/12/28 05:21:37;;;;;;;3.70;2.73;;;9.30;99.90;;;;;;5051912;28;20513;-72
2023/12/28 05:24:05;;;;;;;0.50;0.10;;;9.30;99.90;;;;;;5049320;28;20521;-72
2023/12/28 05:26:33;;;;;;;0.50;0.20;;;9.40;99.90;;;;;;5051555;28;20569;-73
2023/12/28 05:29:01;;;;;;;0.50;0.10;;;9.40;99.90;;;;;;5053398;28;20934;-72
2023/12/28 05:31:28;;;;;;;0.90;0.67;;;9.40;99.90;;;;;;5051959;28;20533;-73
2023/12/28 05:33:59;;;;;;;0.50;0.10;;;9.50;99.90;;;;;;5051966;28;20885;-73
2023/12/28 05:36:27;;;;;;;0.50;0.10;;;9.50;99.90;;;;;;5051442;28;20460;-73
2023/12/28 05:38:54;;;;;;;0.50;0.10;;;9.50;99.90;;;;;;5050872;28;20977;-72
2023/12/28 05:41:22;;;;;;;1.10;0.80;;;9.50;99.90;;;;;;5051662;28;21058;-73
2023/12/28 05:43:50;;;;;;;0.50;0.10;;;9.60;99.90;;;;;;5052136;28;20487;-72
2023/12/28 05:46:18;;;;;;;0.50;0.10;;;9.60;99.90;;;;;;5050817;28;20781;-73
2023/12/28 05:48:46;;;;;;;3.20;1.50;;;9.60;99.90;;;;;;5055379;28;20437;-72
2023/12/28 05:51:15;;;;;;;0.50;0.10;;;9.60;99.90;;;;;;5052397;28;20820;-72
2023/12/28 05:53:43;;;;;;;0.50;0.10;;;9.60;99.90;;;;;;5052103;28;20445;-73
2023/12/28 05:56:11;;;;;;;0.50;0.10;;;9.60;99.90;;;;;;5051090;28;20579;-73
2023/12/28 05:58:39;;;;;;;0.50;0.10;;;9.60;99.90;;;;;;5053343;28;20496;-73
2023/12/28 06:01:07;;;;;;;7.30;1.67;;;9.60;99.90;;;;;;5049064;28;20522;-73
2023/12/28 06:03:35;;;;;;;0.50;0.10;;;9.70;99.90;;;;;;5049750;28;20825;-72
2023/12/28 06:06:04;;;;;;;0.50;0.10;;;9.70;99.90;;;;;;5061357;28;20462;-72
2023/12/28 06:08:33;;;;;;;0.50;0.10;;;9.70;99.90;;;;;;5051492;28;20479;-72
2023/12/28 06:11:01;;;;;;;0.50;0.10;;;9.70;99.90;;;;;;5041547;28;20464;-72
2023/12/28 06:13:29;;;;;;;0.50;0.10;;;9.70;99.90;;;;;;5041788;28;20460;-73
2023/12/28 06:15:57;;;;;;;0.50;0.10;;;9.70;99.90;;;;;;5051735;28;20536;-73
2023/12/28 06:18:25;;;;;;;0.50;0.10;;;9.70;99.90;;;;;;5055826;28;20449;-74
2023/12/28 06:20:52;;;;;;;1.13;1.03;;;9.70;99.90;;;;;;5057753;28;20952;-72
2023/12/28 06:23:20;;;;;;;0.50;0.20;;;9.70;99.90;;;;;;5053701;28;20472;-73
2023/12/28 06:25:50;;;;;;;0.50;0.10;;;9.70;99.90;;;;;;5051281;28;20467;-72
2023/12/28 06:28:18;;;;;;;0.50;0.10;;;9.70;99.90;;;;;;5052267;28;20520;-72
2023/12/28 06:30:46;;;;;;;0.50;0.10;;;9.70;99.90;;;;;;5047013;28;20496;-73
2023/12/28 06:33:16;;;;;;;0.50;0.10;;;9.70;99.90;;;;;;5052315;28;20453;-72
2023/12/28 06:35:44;;;;;;;0.50;0.10;;;;;;;;;;5052393;28;20802;-73
2023/12/28 06:38:12;;;;;;;0.50;0.10;;;9.70;99.90;;;;;;5052315;28;20451;-72
2023/12/28 06:40:40;;;;;;;1.57;1.50;;;;;;;;;;5060758;28;20449;-73
2023/12/28 06:43:10;;;;;;;0.50;0.10;;;9.70;99.90;;;;;;5062894;28;20447;-73
2023/12/28 06:45:38;;;;;;;0.50;0.10;;;9.70;99.90;;;;;;5052195;28;20806;-74
2023/12/28 06:48:06;;;;;;;0.53;0.27;;;9.70;99.90;;;;;;5053228;28;20490;-73
2023/12/28 06:50:34;;;;;;;0.50;0.10;;;9.70;99.90;;;;;;5052696;28;20503;-73
2023/12/28 06:53:02;;;;;;;0.50;0.10;;;9.60;99.90;;;;;;5059837;28;20889;-73
2023/12/28 06:55:30;;;;;;;0.57;0.43;;;9.60;99.90;;;;;;5055789;28;20465;-74
2023/12/28 06:58:01;;;;;;;0.50;0.23;;;9.70;99.90;;;;;;5056937;28;21063;-74
2023/12/28 07:00:31;;;;;;;0.50;0.10;;;9.70;99.90;;;;;;5056187;28;20450;-73
2023/12/28 07:02:59;;;;;;;0.50;0.10;;;9.70;99.90;;;;;;5042510;28;20502;-73
2023/12/28 07:05:27;;;;;;;0.50;0.10;;;9.70;99.90;;;;;;5042319;28;20538;-72
2023/12/28 07:07:55;;;;;;;10.77;8.00;;;9.60;99.90;;;;;;5055904;28;20485;-72
2023/12/28 07:10:24;;;;;;;0.50;0.10;;;9.70;99.90;;;;;;5057411;28;20520;-73
2023/12/28 07:12:52;;;;;;;0.50;0.10;;;9.70;99.90;;;;;;5059392;28;20451;-73
2023/12/28 07:15:21;;;;;;;0.50;0.10;;;9.70;99.90;;;;;;5046562;28;20952;-74
2023/12/28 07:17:50;;;;;;;0.50;0.10;;;9.70;99.90;;;;;;5058142;28;20469;-73
2023/12/28 07:20:18;;;;;;;0.50;0.10;;;9.70;99.90;;;;;;5061699;28;20470;-73
2023/12/28 07:22:48;;;;;;;0.50;0.10;;;9.80;99.90;;;;;;5057917;28;20960;-73
2023/12/28 07:25:19;;;;;;;0.50;0.20;;;9.80;99.90;;;;;;5056316;28;20457;-73
2023/12/28 07:27:50;;;;;;;0.50;0.10;;;9.80;99.90;;;;;;5055128;28;20573;-74
2023/12/28 07:30:21;;;;;;;0.50;0.10;;;9.80;99.90;;;;;;5055609;28;20522;-73
2023/12/28 07:32:52;;;;;;;0.50;0.10;;;9.80;99.90;;;;;;5052302;28;20896;-73
2023/12/28 07:35:20;;;;;;;0.50;0.10;;;9.80;99.90;;;;;;5054647;28;20451;-74
2023/12/28 07:37:48;;;;;;;0.50;0.10;;;9.80;99.90;;;;;;5054482;28;20471;-72
2023/12/28 07:40:16;;;;;;;0.50;0.10;;;9.80;99.90;;;;;;5046545;28;20847;-73
2023/12/28 07:42:44;;;;;;;0.50;0.10;;;9.80;99.90;;;;;;5051706;28;20944;-73
2023/12/28 07:45:17;;;;;;;0.50;0.10;;;9.90;99.90;;;;;;5055197;28;20541;-73
2023/12/28 07:47:45;;;;;;;0.50;0.10;;;9.90;99.90;;;;;;5059830;28;20896;-72
2023/12/28 07:50:17;;;;;;;0.50;0.10;;;9.90;99.90;;;;;;5049481;28;20437;-74
2023/12/28 07:52:48;;;;;;;0.50;0.10;;;9.90;99.90;;;;;;5055305;28;20475;-73
2023/12/28 07:55:16;;;;;;;1.23;1.20;;;9.90;99.90;;;;;;5054219;28;20535;-72
2023/12/28 07:57:45;;;;;;;0.50;0.10;;;9.90;99.90;;;;;;5054105;28;20475;-73
2023/12/28 08:00:16;;;;;;;11.27;10.67;;;9.90;99.90;;;;;;5055375;28;20806;-72
2023/12/28 08:02:47;;;;;;;0.50;0.10;;;9.90;99.90;;;;;;5052431;28;20449;-76
2023/12/28 08:05:16;;;;;;;0.50;0.10;;;9.90;99.90;;;;;;5056875;28;20863;-73
2023/12/28 08:07:44;;;;;;;0.50;0.10;;;10.00;99.90;;;;;;5054289;28;20549;-73
2023/12/28 08:10:12;;;;;;;0.50;0.10;;;10.00;99.90;;;;;;5048411;28;20540;-73
2023/12/28 08:12:40;;;;;;;0.60;0.30;;;10.00;99.90;;;;;;5052291;28;20494;-71
2023/12/28 08:15:09;;;;;;;0.60;0.20;;;;;;;;;;5041156;28;20449;-72
2023/12/28 08:17:37;;;;;;;0.50;0.20;;;10.00;99.90;;;;;;5050202;28;20497;-72
2023/12/28 08:20:10;;;;;;;0.50;0.30;;;10.00;99.90;;;;;;5053352;28;20848;-71
2023/12/28 08:22:39;;;;;;;0.50;0.10;;;10.00;99.90;;;;;;5053296;28;20802;-73
2023/12/28 08:25:07;;;;;;;0.50;0.10;;;10.10;99.90;;;;;;5052294;28;20470;-73
2023/12/28 08:27:35;;;;;;;0.50;0.10;;;10.10;99.90;;;;;;5059775;28;20989;-72
2023/12/28 08:30:07;;;;;;;0.60;0.30;;;10.10;99.90;;;;;;5048765;28;20451;-73
2023/12/28 08:32:35;;;;;;;0.50;0.10;;;;;;;;;;5053865;28;20458;-73
2023/12/28 08:35:06;;;;;;;0.50;0.10;;;10.10;99.90;;;;;;5051296;28;20437;-72
2023/12/28 08:37:35;;;;;;;0.50;0.10;;;10.10;99.90;;;;;;5048543;28;20620;-74
2023/12/28 08:40:05;;;;;;;0.50;0.10;;;10.10;99.90;;;;;;5052856;28;20452;-72
2023/12/28 08:42:33;;;;;;;0.50;0.20;;;10.10;99.90;;;;;;5053516;28;20460;-73
2023/12/28 08:45:01;;;;;;;0.50;0.10;;;10.10;99.90;;;;;;5052031;28;20541;-73
2023/12/28 08:47:29;;;;;;;0.50;0.10;;;10.10;99.90;;;;;;5052299;28;20486;-74
2023/12/28 08:49:57;;;;;;;3.73;1.03;;;10.20;99.90;;;;;;5050339;28;20487;-73
2023/12/28 08:52:25;;;;;;;0.50;0.20;;;10.10;99.90;;;;;;5053550;28;20937;-73
2023/12/28 08:54:54;;;;;;;0.50;0.30;;;10.10;99.90;;;;;;5053545;28;20538;-73
2023/12/28 08:57:24;;;;;;;0.50;0.10;;;10.10;99.90;;;;;;5054072;28;20472;-73
2023/12/28 09:00:10;;;;;;;0.50;0.10;;;;;;;;;;5040993;28;20475;-74
2023/12/28 09:02:38;;;;;;;0.50;0.20;;;10.20;99.90;;;;;;5050817;28;20454;-73
2023/12/28 09:05:06;;;;;;;0.50;0.10;;;;;;;;;;5056495;28;20460;-73
2023/12/28 09:07:36;;;;;;;0.50;0.10;;;10.20;99.90;;;;;;5054104;28;20482;-74
2023/12/28 09:10:05;;;;;;;0.50;0.10;;;;;;;;;;5053981;28;20561;-74
2023/12/28 09:12:35;;;;;;;0.50;0.10;;;;;;;;;;5052789;28;20485;-76
2023/12/28 09:15:05;;;;;;;0.60;0.33;;;10.20;99.90;;;;;;5052188;28;20447;-74
2023/12/28 09:17:32;;;;;;;0.70;0.70;;;10.20;99.90;;;;;;5052498;28;20472;-73
2023/12/28 09:20:04;;;;;;;0.60;0.40;;;10.20;99.90;;;;;;5053806;28;20456;-74
2023/12/28 09:22:32;;;;;;;1.17;1.07;;;10.20;99.90;;;;;;5057604;28;20857;-74
2023/12/28 09:25:00;;;;;;;0.60;0.30;;;10.20;99.90;;;;;;5051902;28;20476;-73
2023/12/28 09:27:27;;;;;;;0.50;0.10;;;10.90;99.90;;;;;;5052038;28;20467;-73
2023/12/28 09:29:57;;;;;;;1.40;1.30;;;10.30;99.90;;;;;;5051777;28;20479;-73
2023/12/28 09:32:25;;;;;;;0.80;0.37;;;10.30;99.90;;;;;;5052311;28;20489;-74
2023/12/28 09:34:52;;;;;;;0.50;0.30;;;10.30;99.90;;;;;;5052293;28;20985;-73
2023/12/28 09:37:20;;;;;;;0.50;0.20;;;10.40;99.90;;;;;;5042909;28;20484;-74
2023/12/28 09:39:48;;;;;;;1.67;1.10;;;10.40;99.90;;;;;;5051920;28;20538;-72
2023/12/28 09:42:23;;;;;;;0.50;0.10;;;10.50;99.90;;;;;;5053709;28;20494;-73
2023/12/28 09:44:52;;;;;;;0.50;0.10;;;10.50;99.90;;;;;;5053770;28;20440;-73
2023/12/28 09:47:22;;;;;;;20.13;18.73;;;10.60;99.90;;;;;;5053982;28;20496;-73
2023/12/28 09:49:50;;;;;;;0.50;0.10;;;10.60;99.90;;;;;;5054484;28;20519;-73
2023/12/28 09:52:18;;;;;;;0.50;0.20;;;10.60;99.90;;;;;;5053040;28;20446;-73
2023/12/28 09:54:46;;;;;;;0.50;0.20;;;10.60;99.90;;;;;;5047477;28;20990;-73
2023/12/28 09:57:14;;;;;;;0.70;0.47;;;10.60;99.90;;;;;;5045168;28;20999;-73
2023/12/28 09:59:42;;;;;;;0.50;0.30;;;10.60;99.90;;;;;;5053015;28;20469;-74
2023/12/28 10:02:11;;;;;;;0.50;0.20;;;10.60;99.90;;;;;;5052998;28;20489;-73
2023/12/28 10:04:40;;;;;;;0.50;0.20;;;10.70;99.90;;;;;;5046709;28;20452;-73
2023/12/28 10:07:09;;;;;;;0.50;0.10;;;;;;;;;;5051405;28;20542;-72
2023/12/28 10:09:37;;;;;;;0.50;0.10;;;10.80;99.90;;;;;;5051983;28;20485;-72
2023/12/28 10:12:06;;;;;;;0.50;0.10;;;10.80;99.90;;;;;;5051935;28;20452;-73
2023/12/28 10:14:35;;;;;;;0.50;0.10;;;10.80;99.90;;;;;;5051662;28;20528;-73
2023/12/28 10:17:03;;;;;;;0.80;0.60;;;10.90;99.90;;;;;;5051406;28;20472;-72
2023/12/28 10:19:31;;;;;;;1.37;0.70;;;10.90;99.90;;;;;;5051598;28;20867;-73
2023/12/28 10:22:01;;;;;;;0.50;0.10;;;10.90;99.90;;;;;;5048132;28;20462;-73
2023/12/28 10:24:29;;;;;;;0.50;0.20;;;11.00;99.90;;;;;;5051418;28;20453;-74
2023/12/28 10:26:57;;;;;;;0.50;0.17;;;11.10;99.90;;;;;;5054613;28;20837;-73
2023/12/28 10:29:26;;;;;;;0.57;0.30;;;11.30;99.90;;;;;;5055441;28;20508;-74
2023/12/28 10:31:54;;;;;;;0.60;0.33;;;11.30;99.90;;;;;;5055987;28;20452;-72
2023/12/28 10:34:24;;;;;;;0.50;0.27;;;11.30;99.90;;;;;;5056566;28;20459;-72
2023/12/28 10:36:55;;;;;;;0.50;0.10;;;11.40;99.90;;;;;;5056191;28;20461;-73
2023/12/28 10:39:26;;;;;;;0.50;0.20;;;11.40;99.90;;;;;;5056676;28;20462;-73
2023/12/28 10:41:56;;;;;;;4.43;1.30;;;11.50;99.90;;;;;;5058203;28;20506;-73
2023/12/28 10:44:29;;;;;;;0.60;0.40;;;11.50;99.90;;;;;;5058669;28;20544;-73
2023/12/28 10:47:02;;;;;;;1.77;0.87;;;11.50;99.90;;;;;;5057482;28;20473;-73
2023/12/28 10:49:33;;;;;;;0.50;0.20;;;11.50;99.90;;;;;;5059774;28;20529;-73
2023/12/28 10:52:02;;;;;;;0.50;0.10;;;11.50;99.90;;;;;;5059891;28;20453;-73
2023/12/28 10:54:43;;;;;;;0.50;0.10;;;11.60;99.90;;;;;;5053710;28;20488;-72
2023/12/28 10:57:23;;;;;;;0.50;0.10;;;11.60;99.90;;;;;;5060375;28;20477;-72
2023/12/28 11:00:00;;;;;;;0.60;0.50;;;11.60;99.90;;;;;;5058910;28;20512;-72
2023/12/28 11:02:35;;;;;;;0.50;0.10;;;11.70;99.90;;;;;;5057727;28;20446;-72
2023/12/28 11:05:04;;;;;;;0.50;0.20;;;11.80;99.90;;;;;;5054347;28;20448;-74
2023/12/28 11:07:34;;;;;;;0.50;0.10;;;11.90;99.90;;;;;;5049358;28;20469;-73
2023/12/28 11:10:06;;;;;;;0.50;0.10;;;11.90;99.90;;;;;;5064317;28;20533;-73
2023/12/28 11:12:34;;;;;;;0.90;0.53;;;11.90;99.90;;;;;;5054818;28;20460;-72
2023/12/28 11:15:04;;;;;;;0.60;0.40;;;11.90;99.90;;;;;;5054783;28;20437;-72
2023/12/28 11:17:36;;;;;;;0.70;0.20;;;11.80;99.90;;;;;;5054472;28;20469;-72
2023/12/28 11:20:06;;;;;;;2.77;2.57;;;11.90;99.90;;;;;;5054705;28;20441;-74
2023/12/28 11:22:35;;;;;;;0.70;0.20;;;;;;;;;;5051547;28;20933;-73
2023/12/28 11:25:05;;;;;;;0.50;0.10;;;12.00;99.90;;;;;;5049932;28;20542;-72
2023/12/28 11:27:36;;;;;;;0.80;0.60;;;12.00;99.90;;;;;;5054376;28;20485;-73
2023/12/28 11:30:05;;;;;;;0.50;0.20;;;12.10;99.90;;;;;;5054439;28;20481;-73
2023/12/28 11:32:34;;;;;;;7.03;0.40;;;12.10;99.90;;;;;;5055315;28;20442;-73
2023/12/28 11:35:02;;;;;;;0.67;0.30;;;12.10;99.90;;;;;;5055244;28;20511;-73
2023/12/28 11:37:32;;;;;;;0.50;0.20;;;12.10;99.90;;;;;;5055112;28;20469;-72
2023/12/28 11:40:10;;;;;;;0.50;0.10;;;12.20;99.90;;;;;;5054890;28;20523;-72
2023/12/28 11:42:49;;;;;;;0.80;0.20;;;12.20;99.90;;;;;;5046564;28;20968;-74
2023/12/28 11:45:18;;;;;;;0.50;0.10;;;12.20;99.90;;;;;;5053877;28;20964;-74
2023/12/28 11:47:46;;;;;;;0.50;0.10;;;12.20;99.90;;;;;;5054919;28;20485;-72
2023/12/28 11:50:15;;;;;;;0.50;0.20;;;12.30;99.90;;;;;;5066004;28;20550;-73
2023/12/28 11:52:43;;;;;;;0.50;0.20;;;12.30;99.90;;;;;;5060364;28;20457;-73
2023/12/28 11:55:12;;;;;;;0.50;0.10;;;12.40;99.90;;;;;;5054988;28;20450;-73
2023/12/28 11:57:41;;;;;;;0.50;0.10;;;12.40;99.90;;;;;;5055843;28;20485;-75
2023/12/28 12:00:10;;;;;;;0.50;0.10;;;12.40;99.90;;;;;;5050735;28;20465;-73
2023/12/28 12:02:38;;;;;;;3.53;2.33;;;12.40;99.90;;;;;;5055347;28;20446;-72
2023/12/28 12:05:10;;;;;;;0.50;0.10;;;12.50;99.90;;;;;;5054592;28;20446;-73
2023/12/28 12:07:37;;;;;;;0.80;0.50;;;12.50;99.90;;;;;;5047033;28;20488;-72
2023/12/28 12:10:06;;;;;;;0.80;0.60;;;12.50;99.90;;;;;;5054159;28;20473;-73
2023/12/28 12:12:34;;;;;;;0.50;0.10;;;12.50;99.90;;;;;;5057292;28;20453;-73
2023/12/28 12:15:04;;;;;;;0.50;0.10;;;12.50;99.90;;;;;;5057193;28;20446;-72
2023/12/28 12:17:32;;;;;;;0.50;0.10;;;12.50;99.90;;;;;;5059081;28;20484;-73
2023/12/28 12:20:02;;;;;;;0.50;0.10;;;12.50;99.90;;;;;;5057146;28;20458;-72
2023/12/28 12:22:30;;;;;;;0.50;0.20;;;;;;;;;;5058667;28;20557;-73
2023/12/28 12:25:01;;;;;;;0.50;0.10;;;12.50;99.90;;;;;;5056362;28;20442;-73
2023/12/28 12:27:29;;;;;;;0.50;0.20;;;12.60;99.90;;;;;;5063276;28;20932;-73
2023/12/28 12:29:57;;;;;;;0.50;0.20;;;12.60;99.90;;;;;;5055937;28;20988;-73
2023/12/28 12:32:28;;;;;;;0.50;0.10;;;12.60;99.90;;;;;;5055304;28;20462;-72
2023/12/28 12:34:59;;;;;;;0.60;0.30;;;12.50;99.90;;;;;;5054699;28;20445;-73
2023/12/28 12:37:27;;;;;;;0.50;0.10;;;12.60;99.90;;;;;;5054540;28;20529;-72
2023/12/28 12:39:56;;;;;;;0.60;0.30;;;12.60;99.90;;;;;;5057550;28;20496;-74
2023/12/28 12:42:23;;;;;;;3.13;0.57;;;12.60;99.90;;;;;;5048701;28;20446;-73
2023/12/28 12:44:52;;;;;;;0.60;0.40;;;12.60;99.90;;;;;;5058093;28;20446;-73
2023/12/28 12:47:23;;;;;;;0.50;0.10;;;12.60;99.90;;;;;;5058918;28;20473;-72
2023/12/28 12:49:54;;;;;;;0.50;0.10;;;;;;;;;;5056024;28;20857;-73
2023/12/28 12:52:23;;;;;;;0.50;0.20;;;;;;;;;;5049592;28;20478;-74
2023/12/28 12:54:55;;;;;;;1.57;0.80;;;12.60;99.90;;;;;;5060216;28;20438;-73
2023/12/28 12:57:25;;;;;;;0.50;0.10;;;12.50;99.90;;;;;;5050840;28;20581;-73
2023/12/28 12:59:57;;;;;;;0.50;0.10;;;12.40;99.90;;;;;;5057226;28;20487;-74
2023/12/28 13:02:27;;;;;;;0.83;0.47;;;;;;;;;;5066169;28;20967;-72
2023/12/28 13:04:57;;;;;;;0.50;0.10;;;12.60;99.90;;;;;;5057595;28;20469;-74
2023/12/28 13:07:28;;;;;;;0.50;0.10;;;12.60;99.90;;;;;;5056606;28;20562;-74
2023/12/28 13:09:56;;;;;;;0.50;0.10;;;;;;;;;;5057715;28;20435;-74